sensor_id;sensor_type;location;lat;lon;timestamp;pressure;altitude;pressure_sealevel;temperature;humidity
71917;BME280;59793;46.506;6.674;2024-01-06T00:00:28;96045.13;;;7.09;82.63
71917;BME280;59793;46.506;6.674;2024-01-06T00:02:54;96024.03;;;7.02;82.63
71917;BME280;59793;46.506;6.674;2024-01-06T00:05:19;96019.81;;;6.97;82.21
71917;BME280;59793;46.506;6.674;2024-01-06T00:07:45;96043.00;;;7.14;82.11
71917;BME280;59793;46.506;6.674;2024-01-06T00:10:10;96045.63;;;7.14;82.38
71917;BME280;59793;46.506;6.674;2024-01-06T00:12:35;96033.16;;;6.92;83.65
71917;BME280;59793;46.506;6.674;2024-01-06T00:15:01;96021.03;;;6.84;84.37
71917;BME280;59793;46.506;6.674;2024-01-06T00:17:27;96053.94;;;7.01;85.63
71917;BME280;59793;46.506;6.674;2024-01-06T00:19:55;96021.22;;;6.75;86.19
71917;BME280;59793;46.506;6.674;2024-01-06T00:22:20;96010.09;;;6.62;86.79
71917;BME280;59793;46.506;6.674;2024-01-06T00:24:46;96010.94;;;6.66;86.87
71917;BME280;59793;46.506;6.674;2024-01-06T00:27:11;96038.16;;;6.81;86.57
71917;BME280;59793;46.506;6.674;2024-01-06T00:29:39;96047.63;;;6.86;86.73
71917;BME280;59793;46.506;6.674;2024-01-06T00:32:05;96046.53;;;6.87;86.55
71917;BME280;59793;46.506;6.674;2024-01-06T00:34:31;96031.34;;;6.77;86.52
71917;BME280;59793;46.506;6.674;2024-01-06T00:36:56;96053.72;;;6.90;85.35
71917;BME280;59793;46.506;6.674;2024-01-06T00:39:22;96044.31;;;6.89;84.73
71917;BME280;59793;46.506;6.674;2024-01-06T00:41:48;96053.44;;;6.95;84.96
71917;BME280;59793;46.506;6.674;2024-01-06T00:44:13;96045.03;;;6.86;84.58
71917;BME280;59793;46.506;6.674;2024-01-06T00:46:39;96063.50;;;6.93;84.83
71917;BME280;59793;46.506;6.674;2024-01-06T00:49:04;96027.38;;;6.67;84.93
71917;BME280;59793;46.506;6.674;2024-01-06T00:51:30;96054.63;;;6.82;85.38
71917;BME280;59793;46.506;6.674;2024-01-06T00:53:55;96051.69;;;6.83;85.21
71917;BME280;59793;46.506;6.674;2024-01-06T00:56:21;96057.84;;;6.91;84.63
71917;BME280;59793;46.506;6.674;2024-01-06T00:58:46;96057.00;;;6.87;85.01
71917;BME280;59793;46.506;6.674;2024-01-06T01:01:11;96047.22;;;6.84;85.48
71917;BME280;59793;46.506;6.674;2024-01-06T01:03:37;96034.75;;;6.61;85.48
71917;BME280;59793;46.506;6.674;2024-01-06T01:06:02;96058.88;;;6.70;85.68
71917;BME280;59793;46.506;6.674;2024-01-06T01:08:27;96002.78;;;6.20;86.06
71917;BME280;59793;46.506;6.674;2024-01-06T01:10:53;96012.97;;;6.10;87.40
71917;BME280;59793;46.506;6.674;2024-01-06T01:13:18;96074.00;;;6.45;87.64
71917;BME280;59793;46.506;6.674;2024-01-06T01:15:43;96081.84;;;6.45;87.46
71917;BME280;59793;46.506;6.674;2024-01-06T01:18:08;96079.13;;;6.42;87.37
71917;BME280;59793;46.506;6.674;2024-01-06T01:20:34;96059.38;;;6.29;86.67
71917;BME280;59793;46.506;6.674;2024-01-06T01:23:00;96076.03;;;6.52;87.00
71917;BME280;59793;46.506;6.674;2024-01-06T01:25:25;96052.97;;;6.42;86.72
71917;BME280;59793;46.506;6.674;2024-01-06T01:27:50;96063.88;;;6.44;87.23
71917;BME280;59793;46.506;6.674;2024-01-06T01:30:16;96083.38;;;6.62;86.96
71917;BME280;59793;46.506;6.674;2024-01-06T01:32:41;96081.94;;;6.65;87.44
71917;BME280;59793;46.506;6.674;2024-01-06T01:35:07;96093.72;;;6.75;87.63
71917;BME280;59793;46.506;6.674;2024-01-06T01:37:32;96097.88;;;6.76;88.07
71917;BME280;59793;46.506;6.674;2024-01-06T01:39:57;96104.13;;;6.71;88.04
71917;BME280;59793;46.506;6.674;2024-01-06T01:42:23;96105.50;;;6.65;88.43
71917;BME280;59793;46.506;6.674;2024-01-06T01:44:48;96116.94;;;6.60;88.86
71917;BME280;59793;46.506;6.674;2024-01-06T01:47:13;96079.13;;;6.42;89.28
71917;BME280;59793;46.506;6.674;2024-01-06T01:49:45;96117.38;;;6.62;88.51
71917;BME280;59793;46.506;6.674;2024-01-06T01:52:10;96116.19;;;6.60;88.31
71917;BME280;59793;46.506;6.674;2024-01-06T01:54:35;96109.94;;;6.49;87.82
71917;BME280;59793;46.506;6.674;2024-01-06T01:57:02;96124.63;;;6.53;88.03
71917;BME280;59793;46.506;6.674;2024-01-06T01:59:27;96114.50;;;6.52;87.92
71917;BME280;59793;46.506;6.674;2024-01-06T02:01:53;96100.41;;;6.56;87.88
71917;BME280;59793;46.506;6.674;2024-01-06T02:04:18;96126.69;;;6.76;87.62
71917;BME280;59793;46.506;6.674;2024-01-06T02:06:43;96103.03;;;6.56;87.84
71917;BME280;59793;46.506;6.674;2024-01-06T02:09:09;96114.78;;;6.62;88.16
71917;BME280;59793;46.506;6.674;2024-01-06T02:11:34;96110.78;;;6.53;87.58
71917;BME280;59793;46.506;6.674;2024-01-06T02:13:59;96125.06;;;6.71;87.41
71917;BME280;59793;46.506;6.674;2024-01-06T02:16:25;96121.78;;;6.74;87.13
71917;BME280;59793;46.506;6.674;2024-01-06T02:18:51;96129.03;;;6.65;86.84
71917;BME280;59793;46.506;6.674;2024-01-06T02:21:17;96151.59;;;6.69;87.26
71917;BME280;59793;46.506;6.674;2024-01-06T02:23:42;96145.59;;;6.69;87.71
71917;BME280;59793;46.506;6.674;2024-01-06T02:26:09;96103.78;;;6.41;87.77
71917;BME280;59793;46.506;6.674;2024-01-06T02:28:35;96146.25;;;6.66;87.95
71917;BME280;59793;46.506;6.674;2024-01-06T02:31:00;96120.50;;;6.52;88.15
71917;BME280;59793;46.506;6.674;2024-01-06T02:33:25;96140.28;;;6.65;88.13
71917;BME280;59793;46.506;6.674;2024-01-06T02:35:51;96143.97;;;6.80;87.20
71917;BME280;59793;46.506;6.674;2024-01-06T02:38:16;96152.19;;;6.79;87.39
71917;BME280;59793;46.506;6.674;2024-01-06T02:40:42;96138.56;;;6.73;86.52
71917;BME280;59793;46.506;6.674;2024-01-06T02:43:08;96132.50;;;6.69;86.17
71917;BME280;59793;46.506;6.674;2024-01-06T02:45:33;96129.81;;;6.65;84.94
71917;BME280;59793;46.506;6.674;2024-01-06T02:47:59;96149.97;;;6.81;84.16
71917;BME280;59793;46.506;6.674;2024-01-06T02:50:24;96149.97;;;6.81;83.56
71917;BME280;59793;46.506;6.674;2024-01-06T02:52:49;96143.56;;;6.94;81.79
71917;BME280;59793;46.506;6.674;2024-01-06T02:55:15;96156.06;;;7.01;81.73
71917;BME280;59793;46.506;6.674;2024-01-06T02:57:40;96129.56;;;6.86;81.56
71917;BME280;59793;46.506;6.674;2024-01-06T03:00:09;96135.53;;;6.87;81.54
71917;BME280;59793;46.506;6.674;2024-01-06T03:02:34;96144.81;;;6.84;81.46
71917;BME280;59793;46.506;6.674;2024-01-06T03:05:01;96155.22;;;6.97;81.78
71917;BME280;59793;46.506;6.674;2024-01-06T03:07:27;96155.16;;;6.93;82.05
71917;BME280;59793;46.506;6.674;2024-01-06T03:09:52;96143.41;;;6.87;82.21
71917;BME280;59793;46.506;6.674;2024-01-06T03:12:17;96138.94;;;6.72;83.03
71917;BME280;59793;46.506;6.674;2024-01-06T03:14:43;96147.34;;;6.81;82.90
71917;BME280;59793;46.506;6.674;2024-01-06T03:17:08;96143.56;;;6.78;83.27
71917;BME280;59793;46.506;6.674;2024-01-06T03:19:36;96129.81;;;6.65;82.96
71917;BME280;59793;46.506;6.674;2024-01-06T03:22:01;96135.22;;;6.73;82.04
71917;BME280;59793;46.506;6.674;2024-01-06T03:24:27;96143.81;;;6.89;81.36
71917;BME280;59793;46.506;6.674;2024-01-06T03:26:52;96143.63;;;6.82;81.42
71917;BME280;59793;46.506;6.674;2024-01-06T03:29:17;96150.72;;;6.81;79.40
71917;BME280;59793;46.506;6.674;2024-01-06T03:31:46;96157.41;;;6.79;80.35
71917;BME280;59793;46.506;6.674;2024-01-06T03:34:12;96134.53;;;6.76;80.81
71917;BME280;59793;46.506;6.674;2024-01-06T03:36:38;96147.28;;;6.77;81.38
71917;BME280;59793;46.506;6.674;2024-01-06T03:39:04;96159.78;;;6.84;81.15
71917;BME280;59793;46.506;6.674;2024-01-06T03:41:29;96150.47;;;6.70;80.61
71917;BME280;59793;46.506;6.674;2024-01-06T03:43:55;96149.56;;;6.79;79.95
71917;BME280;59793;46.506;6.674;2024-01-06T03:46:21;96160.22;;;6.86;79.71
71917;BME280;59793;46.506;6.674;2024-01-06T03:48:46;96150.16;;;6.88;79.60
71917;BME280;59793;46.506;6.674;2024-01-06T03:51:12;96161.97;;;6.82;80.91
71917;BME280;59793;46.506;6.674;2024-01-06T03:53:39;96161.38;;;6.88;80.01
71917;BME280;59793;46.506;6.674;2024-01-06T03:56:05;96162.47;;;6.87;80.29
71917;BME280;59793;46.506;6.674;2024-01-06T03:58:31;96161.53;;;6.64;79.79
71917;BME280;59793;46.506;6.674;2024-01-06T04:00:56;96162.53;;;6.59;79.76
71917;BME280;59793;46.506;6.674;2024-01-06T04:03:22;96174.88;;;6.75;79.81
71917;BME280;59793;46.506;6.674;2024-01-06T04:05:47;96174.28;;;6.81;79.21
71917;BME280;59793;46.506;6.674;2024-01-06T04:08:12;96162.50;;;6.72;80.24
71917;BME280;59793;46.506;6.674;2024-01-06T04:10:38;96160.53;;;6.68;80.11
71917;BME280;59793;46.506;6.674;2024-01-06T04:13:04;96162.91;;;6.74;77.81
71917;BME280;59793;46.506;6.674;2024-01-06T04:15:29;96158.31;;;6.70;79.12
71917;BME280;59793;46.506;6.674;2024-01-06T04:17:54;96152.91;;;6.63;78.15
71917;BME280;59793;46.506;6.674;2024-01-06T04:20:20;96172.03;;;6.80;77.88
71917;BME280;59793;46.506;6.674;2024-01-06T04:22:45;96177.84;;;6.73;79.03
71917;BME280;59793;46.506;6.674;2024-01-06T04:25:10;96162.53;;;6.59;79.41
71917;BME280;59793;46.506;6.674;2024-01-06T04:27:36;96180.81;;;6.72;78.56
71917;BME280;59793;46.506;6.674;2024-01-06T04:30:01;96168.63;;;6.63;77.83
71917;BME280;59793;46.506;6.674;2024-01-06T04:32:27;96174.63;;;6.64;77.60
71917;BME280;59793;46.506;6.674;2024-01-06T04:34:52;96155.19;;;6.49;77.06
71917;BME280;59793;46.506;6.674;2024-01-06T04:37:17;96176.47;;;6.63;77.41
71917;BME280;59793;46.506;6.674;2024-01-06T04:39:43;96163.47;;;6.51;77.45
71917;BME280;59793;46.506;6.674;2024-01-06T04:42:08;96157.97;;;6.56;77.07
71917;BME280;59793;46.506;6.674;2024-01-06T04:44:33;96160.19;;;6.54;76.31
71917;BME280;59793;46.506;6.674;2024-01-06T04:46:59;96182.81;;;6.62;75.97
71917;BME280;59793;46.506;6.674;2024-01-06T04:49:24;96187.97;;;6.59;76.22
71917;BME280;59793;46.506;6.674;2024-01-06T04:51:49;96193.09;;;6.55;76.62
71917;BME280;59793;46.506;6.674;2024-01-06T04:54:15;96193.28;;;6.62;75.77
71917;BME280;59793;46.506;6.674;2024-01-06T04:56:40;96183.06;;;6.57;75.81
71917;BME280;59793;46.506;6.674;2024-01-06T04:59:05;96161.34;;;6.41;75.54
71917;BME280;59793;46.506;6.674;2024-01-06T05:01:32;96191.59;;;6.54;75.47
71917;BME280;59793;46.506;6.674;2024-01-06T05:03:57;96179.56;;;6.53;74.63
71917;BME280;59793;46.506;6.674;2024-01-06T05:06:24;96137.72;;;6.09;75.12
71917;BME280;59793;46.506;6.674;2024-01-06T05:08:49;96187.03;;;6.51;75.15
71917;BME280;59793;46.506;6.674;2024-01-06T05:11:15;96194.34;;;6.45;75.38
71917;BME280;59793;46.506;6.674;2024-01-06T05:13:40;96151.94;;;5.96;76.76
71917;BME280;59793;46.506;6.674;2024-01-06T05:16:07;96195.34;;;6.41;76.28
71917;BME280;59793;46.506;6.674;2024-01-06T05:18:32;96202.72;;;6.51;76.58
71917;BME280;59793;46.506;6.674;2024-01-06T05:20:58;96210.31;;;6.56;75.94
71917;BME280;59793;46.506;6.674;2024-01-06T05:23:23;96201.47;;;6.61;76.61
71917;BME280;59793;46.506;6.674;2024-01-06T05:25:48;96207.13;;;6.63;77.24
71917;BME280;59793;46.506;6.674;2024-01-06T05:28:14;96195.28;;;6.53;77.44
71917;BME280;59793;46.506;6.674;2024-01-06T05:30:39;96170.47;;;6.47;77.79
71917;BME280;59793;46.506;6.674;2024-01-06T05:33:04;96176.69;;;6.42;77.94
71917;BME280;59793;46.506;6.674;2024-01-06T05:35:30;96204.78;;;6.30;79.42
71917;BME280;59793;46.506;6.674;2024-01-06T05:37:56;96191.97;;;6.12;80.64
71917;BME280;59793;46.506;6.674;2024-01-06T05:40:21;96199.16;;;6.15;79.52
71917;BME280;59793;46.506;6.674;2024-01-06T05:42:47;96206.34;;;6.18;80.14
71917;BME280;59793;46.506;6.674;2024-01-06T05:45:12;96201.13;;;6.18;80.24
71917;BME280;59793;46.506;6.674;2024-01-06T05:47:38;96207.09;;;6.19;79.93
71917;BME280;59793;46.506;6.674;2024-01-06T05:50:04;96193.28;;;6.06;79.97
71917;BME280;59793;46.506;6.674;2024-01-06T05:52:29;96181.31;;;6.05;79.88
71917;BME280;59793;46.506;6.674;2024-01-06T05:54:55;96210.66;;;6.27;80.18
71917;BME280;59793;46.506;6.674;2024-01-06T05:57:20;96188.50;;;6.08;79.33
71917;BME280;59793;46.506;6.674;2024-01-06T05:59:46;96205.72;;;6.37;78.68
71917;BME280;59793;46.506;6.674;2024-01-06T06:02:11;96222.91;;;6.51;77.08
71917;BME280;59793;46.506;6.674;2024-01-06T06:04:36;96225.34;;;6.59;77.80
71917;BME280;59793;46.506;6.674;2024-01-06T06:07:02;96177.16;;;6.32;77.96
71917;BME280;59793;46.506;6.674;2024-01-06T06:09:27;96223.16;;;6.61;77.33
71917;BME280;59793;46.506;6.674;2024-01-06T06:11:53;96146.88;;;6.03;77.39
71917;BME280;59793;46.506;6.674;2024-01-06T06:14:19;96229.06;;;6.58;77.13
71917;BME280;59793;46.506;6.674;2024-01-06T06:16:44;96221.97;;;6.59;77.31
71917;BME280;59793;46.506;6.674;2024-01-06T06:19:10;96225.34;;;6.59;77.81
71917;BME280;59793;46.506;6.674;2024-01-06T06:21:35;96214.75;;;6.40;77.92
71917;BME280;59793;46.506;6.674;2024-01-06T06:24:01;96207.22;;;6.38;78.12
71917;BME280;59793;46.506;6.674;2024-01-06T06:26:29;96159.75;;;6.08;79.25
71917;BME280;59793;46.506;6.674;2024-01-06T06:28:55;96210.22;;;6.25;79.39
71917;BME280;59793;46.506;6.674;2024-01-06T06:31:20;96226.66;;;6.37;78.89
71917;BME280;59793;46.506;6.674;2024-01-06T06:33:47;96230.97;;;6.45;79.34
71917;BME280;59793;46.506;6.674;2024-01-06T06:36:13;96237.41;;;6.48;79.27
71917;BME280;59793;46.506;6.674;2024-01-06T06:38:38;96226.84;;;6.44;78.53
71917;BME280;59793;46.506;6.674;2024-01-06T06:41:03;96217.38;;;6.40;77.86
71917;BME280;59793;46.506;6.674;2024-01-06T06:43:29;96189.78;;;6.14;78.29
71917;BME280;59793;46.506;6.674;2024-01-06T06:45:54;96234.13;;;6.51;78.11
71917;BME280;59793;46.506;6.674;2024-01-06T06:48:21;96234.53;;;6.53;77.40
71917;BME280;59793;46.506;6.674;2024-01-06T06:50:46;96224.72;;;6.50;77.29
71917;BME280;59793;46.506;6.674;2024-01-06T06:53:11;96219.06;;;6.48;77.77
71917;BME280;59793;46.506;6.674;2024-01-06T06:55:39;96219.66;;;6.41;78.06
71917;BME280;59793;46.506;6.674;2024-01-06T06:58:06;96226.41;;;6.42;76.67
71917;BME280;59793;46.506;6.674;2024-01-06T07:00:31;96186.00;;;6.12;76.32
71917;BME280;59793;46.506;6.674;2024-01-06T07:02:56;96220.28;;;6.22;78.87
71917;BME280;59793;46.506;6.674;2024-01-06T07:05:22;96216.59;;;6.11;80.56
71917;BME280;59793;46.506;6.674;2024-01-06T07:07:48;96234.22;;;6.14;80.42
71917;BME280;59793;46.506;6.674;2024-01-06T07:10:13;96240.75;;;6.20;80.41
71917;BME280;59793;46.506;6.674;2024-01-06T07:12:39;96242.47;;;6.29;80.20
71917;BME280;59793;46.506;6.674;2024-01-06T07:15:05;96246.44;;;6.22;79.88
71917;BME280;59793;46.506;6.674;2024-01-06T07:17:30;96245.56;;;6.18;79.75
71917;BME280;59793;46.506;6.674;2024-01-06T07:19:56;96245.09;;;6.29;79.30
71917;BME280;59793;46.506;6.674;2024-01-06T07:22:22;96236.72;;;6.23;79.20
71917;BME280;59793;46.506;6.674;2024-01-06T07:24:48;96240.56;;;6.13;79.00
71917;BME280;59793;46.506;6.674;2024-01-06T07:27:13;96261.03;;;6.23;79.63
71917;BME280;59793;46.506;6.674;2024-01-06T07:29:41;96267.00;;;6.24;80.16
71917;BME280;59793;46.506;6.674;2024-01-06T07:32:08;96267.00;;;6.24;79.46
71917;BME280;59793;46.506;6.674;2024-01-06T07:34:33;96266.16;;;6.20;79.69
71917;BME280;59793;46.506;6.674;2024-01-06T07:37:00;96272.44;;;6.31;79.00
71917;BME280;59793;46.506;6.674;2024-01-06T07:39:25;96244.13;;;6.21;78.34
71917;BME280;59793;46.506;6.674;2024-01-06T07:41:52;96268.81;;;6.36;78.50
71917;BME280;59793;46.506;6.674;2024-01-06T07:44:17;96255.97;;;6.31;78.57
71917;BME280;59793;46.506;6.674;2024-01-06T07:46:50;96263.19;;;6.34;78.37
71917;BME280;59793;46.506;6.674;2024-01-06T07:49:16;96264.06;;;6.26;78.98
71917;BME280;59793;46.506;6.674;2024-01-06T07:51:42;96181.06;;;5.70;78.40
71917;BME280;59793;46.506;6.674;2024-01-06T07:54:07;96262.56;;;6.12;77.96
71917;BME280;59793;46.506;6.674;2024-01-06T07:56:34;96274.25;;;6.15;78.34
71917;BME280;59793;46.506;6.674;2024-01-06T07:58:59;96253.09;;;6.08;77.78
71917;BME280;59793;46.506;6.674;2024-01-06T08:01:25;96269.88;;;6.19;77.88
71917;BME280;59793;46.506;6.674;2024-01-06T08:03:50;96266.00;;;6.29;78.21
71917;BME280;59793;46.506;6.674;2024-01-06T08:06:15;96282.34;;;6.38;77.72
71917;BME280;59793;46.506;6.674;2024-01-06T08:08:41;96293.38;;;6.31;76.69
71917;BME280;59793;46.506;6.674;2024-01-06T08:11:06;96268.66;;;6.04;77.46
71917;BME280;59793;46.506;6.674;2024-01-06T08:13:32;96289.81;;;6.11;78.46
71917;BME280;59793;46.506;6.674;2024-01-06T08:15:57;96296.78;;;6.19;78.14
71917;BME280;59793;46.506;6.674;2024-01-06T08:18:22;96297.84;;;6.31;77.40
71917;BME280;59793;46.506;6.674;2024-01-06T08:20:50;96299.81;;;6.21;77.85
71917;BME280;59793;46.506;6.674;2024-01-06T08:23:33;96299.38;;;6.19;76.94
71917;BME280;59793;46.506;6.674;2024-01-06T08:25:59;96298.94;;;6.30;76.55
71917;BME280;59793;46.506;6.674;2024-01-06T08:28:24;96289.34;;;6.21;76.98
71917;BME280;59793;46.506;6.674;2024-01-06T08:30:50;96307.75;;;6.37;77.28
71917;BME280;59793;46.506;6.674;2024-01-06T08:33:15;96281.28;;;6.27;77.13
71917;BME280;59793;46.506;6.674;2024-01-06T08:35:42;96312.63;;;6.39;76.66
71917;BME280;59793;46.506;6.674;2024-01-06T08:38:07;96294.38;;;6.27;76.30
71917;BME280;59793;46.506;6.674;2024-01-06T08:40:34;96299.03;;;6.33;75.68
71917;BME280;59793;46.506;6.674;2024-01-06T08:43:01;96320.72;;;6.34;75.31
71917;BME280;59793;46.506;6.674;2024-01-06T08:45:27;96312.88;;;6.34;74.81
71917;BME280;59793;46.506;6.674;2024-01-06T08:47:52;96298.69;;;6.35;74.78
71917;BME280;59793;46.506;6.674;2024-01-06T08:50:18;96291.09;;;6.30;74.03
71917;BME280;59793;46.506;6.674;2024-01-06T08:52:43;96311.50;;;6.52;73.39
71917;BME280;59793;46.506;6.674;2024-01-06T08:55:08;96299.53;;;6.51;72.94
71917;BME280;59793;46.506;6.674;2024-01-06T08:57:34;96271.44;;;6.36;72.85
71917;BME280;59793;46.506;6.674;2024-01-06T09:00:00;96312.63;;;6.51;73.55
71917;BME280;59793;46.506;6.674;2024-01-06T09:02:27;96306.06;;;6.57;73.43
71917;BME280;59793;46.506;6.674;2024-01-06T09:04:52;96300.91;;;6.33;73.86
71917;BME280;59793;46.506;6.674;2024-01-06T09:07:18;96303.28;;;6.38;73.95
71917;BME280;59793;46.506;6.674;2024-01-06T09:09:44;96300.56;;;6.34;74.77
71917;BME280;59793;46.506;6.674;2024-01-06T09:12:09;96257.56;;;6.07;73.81
71917;BME280;59793;46.506;6.674;2024-01-06T09:14:36;96316.75;;;6.52;73.92
71917;BME280;59793;46.506;6.674;2024-01-06T09:17:01;96268.47;;;6.09;74.55
71917;BME280;59793;46.506;6.674;2024-01-06T09:19:27;96267.88;;;6.28;74.42
71917;BME280;59793;46.506;6.674;2024-01-06T09:21:54;96305.56;;;6.67;74.03
71917;BME280;59793;46.506;6.674;2024-01-06T09:24:20;96215.50;;;6.12;74.40
71917;BME280;59793;46.506;6.674;2024-01-06T09:26:46;96267.69;;;6.49;73.59
71917;BME280;59793;46.506;6.674;2024-01-06T09:29:16;96238.97;;;6.37;73.03
71917;BME280;59793;46.506;6.674;2024-01-06T09:31:42;96304.13;;;6.98;72.56
71917;BME280;59793;46.506;6.674;2024-01-06T09:34:11;96301.06;;;6.96;71.42
71917;BME280;59793;46.506;6.674;2024-01-06T09:36:37;96278.72;;;6.70;72.33
71917;BME280;59793;46.506;6.674;2024-01-06T09:39:02;96275.13;;;6.75;71.56
71917;BME280;59793;46.506;6.674;2024-01-06T09:41:29;96265.06;;;6.77;71.53
71917;BME280;59793;46.506;6.674;2024-01-06T09:43:55;96319.72;;;7.23;71.99
71917;BME280;59793;46.506;6.674;2024-01-06T09:46:24;96316.00;;;7.08;71.93
71917;BME280;59793;46.506;6.674;2024-01-06T09:48:51;96312.69;;;7.11;71.73
71917;BME280;59793;46.506;6.674;2024-01-06T09:51:18;96310.59;;;7.16;71.39
71917;BME280;59793;46.506;6.674;2024-01-06T09:53:49;96275.59;;;6.93;69.64
71917;BME280;59793;46.506;6.674;2024-01-06T09:56:18;96320.66;;;7.30;68.66
71917;BME280;59793;46.506;6.674;2024-01-06T09:58:44;96262.81;;;6.91;68.18
71917;BME280;59793;46.506;6.674;2024-01-06T10:01:10;96334.53;;;7.31;67.76
71917;BME280;59793;46.506;6.674;2024-01-06T10:03:38;96306.31;;;6.96;68.41
71917;BME280;59793;46.506;6.674;2024-01-06T10:06:03;96326.97;;;7.13;68.44
71917;BME280;59793;46.506;6.674;2024-01-06T10:08:30;96288.09;;;7.00;69.03
71917;BME280;59793;46.506;6.674;2024-01-06T10:10:58;96341.72;;;7.34;66.29
71917;BME280;59793;46.506;6.674;2024-01-06T10:13:24;96341.97;;;7.45;67.01
71917;BME280;59793;46.506;6.674;2024-01-06T10:15:50;96305.53;;;7.24;67.11
71917;BME280;59793;46.506;6.674;2024-01-06T10:18:16;96267.50;;;7.14;67.64
71917;BME280;59793;46.506;6.674;2024-01-06T10:20:43;96341.56;;;7.74;67.09
71917;BME280;59793;46.506;6.674;2024-01-06T10:23:09;96346.72;;;7.86;67.28
71917;BME280;59793;46.506;6.674;2024-01-06T10:25:35;96313.34;;;7.68;66.38
71917;BME280;59793;46.506;6.674;2024-01-06T10:28:01;96309.00;;;7.43;64.89
71917;BME280;59793;46.506;6.674;2024-01-06T10:30:29;96322.25;;;7.35;64.92
71917;BME280;59793;46.506;6.674;2024-01-06T10:32:55;96238.03;;;6.73;66.99
71917;BME280;59793;46.506;6.674;2024-01-06T10:35:20;96297.25;;;7.37;66.84
71917;BME280;59793;46.506;6.674;2024-01-06T10:37:47;96283.31;;;7.33;65.67
71917;BME280;59793;46.506;6.674;2024-01-06T10:40:14;96310.63;;;7.64;67.75
71917;BME280;59793;46.506;6.674;2024-01-06T10:42:44;96313.81;;;7.73;66.49
71917;BME280;59793;46.506;6.674;2024-01-06T10:45:12;96335.72;;;7.81;67.03
71917;BME280;59793;46.506;6.674;2024-01-06T10:47:40;96322.44;;;7.74;68.38
71917;BME280;59793;46.506;6.674;2024-01-06T10:50:06;96273.91;;;7.16;67.23
71917;BME280;59793;46.506;6.674;2024-01-06T10:52:33;96327.88;;;7.65;67.77
71917;BME280;59793;46.506;6.674;2024-01-06T10:55:01;96323.66;;;7.60;66.46
71917;BME280;59793;46.506;6.674;2024-01-06T10:57:28;96252.38;;;7.07;65.98
71917;BME280;59793;46.506;6.674;2024-01-06T10:59:57;96335.22;;;7.43;66.32
71917;BME280;59793;46.506;6.674;2024-01-06T11:02:24;96335.63;;;7.30;67.79
71917;BME280;59793;46.506;6.674;2024-01-06T11:04:51;96321.63;;;7.10;66.69
71917;BME280;59793;46.506;6.674;2024-01-06T11:07:19;96313.22;;;6.88;67.24
71917;BME280;59793;46.506;6.674;2024-01-06T11:10:09;96340.69;;;7.23;67.55
71917;BME280;59793;46.506;6.674;2024-01-06T11:12:36;96338.50;;;7.25;66.96
71917;BME280;59793;46.506;6.674;2024-01-06T11:15:02;96312.97;;;7.22;66.81
71917;BME280;59793;46.506;6.674;2024-01-06T11:17:54;96330.41;;;7.46;66.89
71917;BME280;59793;46.506;6.674;2024-01-06T11:20:21;96327.69;;;7.58;66.04
71917;BME280;59793;46.506;6.674;2024-01-06T11:22:52;96334.63;;;7.50;65.62
71917;BME280;59793;46.506;6.674;2024-01-06T11:25:20;96323.03;;;7.51;65.51
71917;BME280;59793;46.506;6.674;2024-01-06T11:27:48;96324.06;;;7.47;66.86
71917;BME280;59793;46.506;6.674;2024-01-06T11:30:23;96325.00;;;7.54;66.25
71917;BME280;59793;46.506;6.674;2024-01-06T11:32:51;96318.75;;;7.43;66.88
71917;BME280;59793;46.506;6.674;2024-01-06T11:35:18;96312.38;;;7.44;67.47
71917;BME280;59793;46.506;6.674;2024-01-06T11:40:24;96303.91;;;7.66;65.66
71917;BME280;59793;46.506;6.674;2024-01-06T11:43:00;96306.06;;;7.61;67.96
71917;BME280;59793;46.506;6.674;2024-01-06T11:45:26;96232.84;;;7.21;66.49
71917;BME280;59793;46.506;6.674;2024-01-06T11:47:56;96310.53;;;7.76;65.52
71917;BME280;59793;46.506;6.674;2024-01-06T11:50:24;96209.81;;;7.10;66.00
71917;BME280;59793;46.506;6.674;2024-01-06T11:52:56;96312.13;;;7.81;64.77
71917;BME280;59793;46.506;6.674;2024-01-06T11:55:30;96289.22;;;7.62;66.30
71917;BME280;59793;46.506;6.674;2024-01-06T11:58:02;96301.09;;;7.91;65.54
71917;BME280;59793;46.506;6.674;2024-01-06T12:00:32;96193.81;;;7.15;64.72
71917;BME280;59793;46.506;6.674;2024-01-06T12:02:59;96257.00;;;7.61;66.67
71917;BME280;59793;46.506;6.674;2024-01-06T12:05:26;96290.22;;;7.89;66.14
71917;BME280;59793;46.506;6.674;2024-01-06T12:08:04;96187.81;;;7.15;67.13
71917;BME280;59793;46.506;6.674;2024-01-06T12:10:35;96289.78;;;7.87;66.39
71917;BME280;59793;46.506;6.674;2024-01-06T12:13:06;96269.09;;;7.66;66.54
71917;BME280;59793;46.506;6.674;2024-01-06T12:15:42;96224.81;;;7.29;67.62
71917;BME280;59793;46.506;6.674;2024-01-06T12:18:09;96250.09;;;7.53;65.86
71917;BME280;59793;46.506;6.674;2024-01-06T12:20:36;96251.00;;;7.61;67.63
71917;BME280;59793;46.506;6.674;2024-01-06T12:23:02;96201.56;;;7.28;67.23
71917;BME280;59793;46.506;6.674;2024-01-06T12:25:32;96277.78;;;7.86;66.70
71917;BME280;59793;46.506;6.674;2024-01-06T12:28:01;96165.94;;;7.07;67.68
71917;BME280;59793;46.506;6.674;2024-01-06T12:30:27;96172.19;;;7.18;67.08
71917;BME280;59793;46.506;6.674;2024-01-06T12:32:53;96255.97;;;7.82;66.74
71917;BME280;59793;46.506;6.674;2024-01-06T12:35:20;96169.97;;;7.21;65.51
71917;BME280;59793;46.506;6.674;2024-01-06T12:37:46;96276.44;;;7.92;66.62
71917;BME280;59793;46.506;6.674;2024-01-06T12:40:13;96164.66;;;7.17;66.55
71917;BME280;59793;46.506;6.674;2024-01-06T12:42:42;96234.53;;;7.60;66.98
71917;BME280;59793;46.506;6.674;2024-01-06T12:45:07;96236.91;;;7.34;68.06
71917;BME280;59793;46.506;6.674;2024-01-06T12:47:35;96247.47;;;7.37;67.96
71917;BME280;59793;46.506;6.674;2024-01-06T12:50:01;96198.88;;;7.08;67.54
71917;BME280;59793;46.506;6.674;2024-01-06T12:52:26;96257.53;;;7.51;66.66
71917;BME280;59793;46.506;6.674;2024-01-06T12:54:52;96245.03;;;7.29;67.03
71917;BME280;59793;46.506;6.674;2024-01-06T12:57:18;96242.41;;;7.29;68.35
71917;BME280;59793;46.506;6.674;2024-01-06T12:59:45;96202.28;;;6.93;68.27
71917;BME280;59793;46.506;6.674;2024-01-06T13:02:11;96268.19;;;7.27;68.83
71917;BME280;59793;46.506;6.674;2024-01-06T13:04:36;96158.91;;;6.48;69.42
71917;BME280;59793;46.506;6.674;2024-01-06T13:07:06;96221.84;;;6.99;68.53